sensor_id;sensor_type;location;lat;lon;timestamp;temperature;humidity
13970;DHT22;7057;49.984;8.404;2023-07-29T00:01:49;18.80;99.90
13970;DHT22;7057;49.984;8.404;2023-07-29T00:04:17;18.90;99.90
13970;DHT22;7057;49.984;8.404;2023-07-29T00:06:44;18.90;99.90
13970;DHT22;7057;49.984;8.404;2023-07-29T00:09:12;19.00;99.90
13970;DHT22;7057;49.984;8.404;2023-07-29T00:11:40;19.00;99.90
13970;DHT22;7057;49.984;8.404;2023-07-29T00:14:08;19.00;99.90
13970;DHT22;7057;49.984;8.404;2023-07-29T00:16:35;19.00;99.90
13970;DHT22;7057;49.984;8.404;2023-07-29T00:19:02;19.10;99.90
13970;DHT22;7057;49.984;8.404;2023-07-29T00:21:29;19.10;99.90
13970;DHT22;7057;49.984;8.404;2023-07-29T00:23:57;19.10;99.90
13970;DHT22;7057;49.984;8.404;2023-07-29T00:26:25;19.10;99.90
13970;DHT22;7057;49.984;8.404;2023-07-29T00:28:56;19.10;99.90
13970;DHT22;7057;49.984;8.404;2023-07-29T00:31:23;19.10;99.90
13970;DHT22;7057;49.984;8.404;2023-07-29T00:33:50;19.00;99.90
13970;DHT22;7057;49.984;8.404;2023-07-29T00:36:18;19.00;99.90
13970;DHT22;7057;49.984;8.404;2023-07-29T00:38:46;18.90;99.90
13970;DHT22;7057;49.984;8.404;2023-07-29T00:41:13;18.90;99.90
13970;DHT22;7057;49.984;8.404;2023-07-29T00:43:41;18.90;99.90
13970;DHT22;7057;49.984;8.404;2023-07-29T00:46:10;18.80;99.90
13970;DHT22;7057;49.984;8.404;2023-07-29T00:48:38;18.80;99.90
13970;DHT22;7057;49.984;8.404;2023-07-29T00:51:06;18.80;99.90
13970;DHT22;7057;49.984;8.404;2023-07-29T00:53:33;18.80;99.90
13970;DHT22;7057;49.984;8.404;2023-07-29T00:56:00;18.80;99.90
13970;DHT22;7057;49.984;8.404;2023-07-29T00:58:28;18.90;99.90
13970;DHT22;7057;49.984;8.404;2023-07-29T01:00:55;18.90;99.90
13970;DHT22;7057;49.984;8.404;2023-07-29T01:03:24;18.90;99.90
13970;DHT22;7057;49.984;8.404;2023-07-29T01:06:01;18.90;99.90
13970;DHT22;7057;49.984;8.404;2023-07-29T01:08:38;19.00;99.90
13970;DHT22;7057;49.984;8.404;2023-07-29T01:11:18;19.00;99.90
13970;DHT22;7057;49.984;8.404;2023-07-29T01:13:51;19.00;99.90
13970;DHT22;7057;49.984;8.404;2023-07-29T01:16:25;19.00;99.90
13970;DHT22;7057;49.984;8.404;2023-07-29T01:19:00;18.90;99.90
13970;DHT22;7057;49.984;8.404;2023-07-29T01:21:31;18.90;99.90
13970;DHT22;7057;49.984;8.404;2023-07-29T01:24:00;18.90;99.90
13970;DHT22;7057;49.984;8.404;2023-07-29T01:26:27;18.80;99.90
13970;DHT22;7057;49.984;8.404;2023-07-29T01:28:55;18.80;99.90
13970;DHT22;7057;49.984;8.404;2023-07-29T01:31:30;18.90;99.90
13970;DHT22;7057;49.984;8.404;2023-07-29T01:34:01;18.90;99.90
13970;DHT22;7057;49.984;8.404;2023-07-29T01:36:32;18.90;99.90
13970;DHT22;7057;49.984;8.404;2023-07-29T01:39:02;18.90;99.90
13970;DHT22;7057;49.984;8.404;2023-07-29T01:41:30;18.90;99.90
13970;DHT22;7057;49.984;8.404;2023-07-29T01:43:58;19.00;99.90
13970;DHT22;7057;49.984;8.404;2023-07-29T01:46:25;19.00;99.90
13970;DHT22;7057;49.984;8.404;2023-07-29T01:48:52;19.00;99.90
13970;DHT22;7057;49.984;8.404;2023-07-29T01:51:20;19.00;99.90
13970;DHT22;7057;49.984;8.404;2023-07-29T01:53:48;19.10;99.90
13970;DHT22;7057;49.984;8.404;2023-07-29T01:56:16;19.10;99.90
13970;DHT22;7057;49.984;8.404;2023-07-29T01:58:43;19.10;99.90
13970;DHT22;7057;49.984;8.404;2023-07-29T02:01:10;19.10;99.90
13970;DHT22;7057;49.984;8.404;2023-07-29T02:03:37;19.20;99.90
13970;DHT22;7057;49.984;8.404;2023-07-29T02:06:05;19.20;99.90
13970;DHT22;7057;49.984;8.404;2023-07-29T02:08:32;19.20;99.90
13970;DHT22;7057;49.984;8.404;2023-07-29T02:10:59;19.20;99.90
13970;DHT22;7057;49.984;8.404;2023-07-29T02:13:27;19.20;99.90
13970;DHT22;7057;49.984;8.404;2023-07-29T02:15:54;19.20;99.90
13970;DHT22;7057;49.984;8.404;2023-07-29T02:18:22;19.20;99.90
13970;DHT22;7057;49.984;8.404;2023-07-29T02:20:49;19.20;99.90
13970;DHT22;7057;49.984;8.404;2023-07-29T02:23:16;19.20;99.90
13970;DHT22;7057;49.984;8.404;2023-07-29T02:25:43;19.20;99.90
13970;DHT22;7057;49.984;8.404;2023-07-29T02:28:11;19.40;99.90
13970;DHT22;7057;49.984;8.404;2023-07-29T02:30:41;19.40;99.90
13970;DHT22;7057;49.984;8.404;2023-07-29T02:33:10;19.40;99.90
13970;DHT22;7057;49.984;8.404;2023-07-29T02:35:37;19.40;99.90
13970;DHT22;7057;49.984;8.404;2023-07-29T02:38:04;19.30;99.90
13970;DHT22;7057;49.984;8.404;2023-07-29T02:40:31;19.20;99.90
13970;DHT22;7057;49.984;8.404;2023-07-29T02:42:58;19.20;99.90
13970;DHT22;7057;49.984;8.404;2023-07-29T02:45:26;19.20;99.90
13970;DHT22;7057;49.984;8.404;2023-07-29T02:47:54;19.10;99.90
13970;DHT22;7057;49.984;8.404;2023-07-29T02:50:21;19.10;99.90
13970;DHT22;7057;49.984;8.404;2023-07-29T02:52:48;19.10;99.90
13970;DHT22;7057;49.984;8.404;2023-07-29T02:55:16;19.10;99.90
13970;DHT22;7057;49.984;8.404;2023-07-29T02:57:43;19.00;99.90
13970;DHT22;7057;49.984;8.404;2023-07-29T03:00:11;19.00;99.90
13970;DHT22;7057;49.984;8.404;2023-07-29T03:02:39;19.00;99.90
13970;DHT22;7057;49.984;8.404;2023-07-29T03:05:08;18.90;99.90
13970;DHT22;7057;49.984;8.404;2023-07-29T03:07:35;18.90;99.90
13970;DHT22;7057;49.984;8.404;2023-07-29T03:10:03;18.80;99.90
13970;DHT22;7057;49.984;8.404;2023-07-29T03:12:30;18.80;99.90
13970;DHT22;7057;49.984;8.404;2023-07-29T03:14:57;18.80;99.90
13970;DHT22;7057;49.984;8.404;2023-07-29T03:17:25;18.80;99.90
13970;DHT22;7057;49.984;8.404;2023-07-29T03:19:52;18.80;99.90
13970;DHT22;7057;49.984;8.404;2023-07-29T03:22:21;18.70;99.90
13970;DHT22;7057;49.984;8.404;2023-07-29T03:24:48;18.80;99.90
13970;DHT22;7057;49.984;8.404;2023-07-29T03:27:15;18.80;99.90
13970;DHT22;7057;49.984;8.404;2023-07-29T03:29:42;18.80;99.90
13970;DHT22;7057;49.984;8.404;2023-07-29T03:32:11;18.90;99.90
13970;DHT22;7057;49.984;8.404;2023-07-29T03:34:38;18.90;99.90
13970;DHT22;7057;49.984;8.404;2023-07-29T03:37:06;18.90;99.90
13970;DHT22;7057;49.984;8.404;2023-07-29T03:39:34;18.90;99.90
13970;DHT22;7057;49.984;8.404;2023-07-29T03:42:02;19.00;99.90
13970;DHT22;7057;49.984;8.404;2023-07-29T03:44:29;19.00;99.90
13970;DHT22;7057;49.984;8.404;2023-07-29T03:46:57;18.90;99.90
13970;DHT22;7057;49.984;8.404;2023-07-29T03:49:24;18.90;99.90
13970;DHT22;7057;49.984;8.404;2023-07-29T03:51:51;18.80;99.90
13970;DHT22;7057;49.984;8.404;2023-07-29T03:54:18;18.80;99.90
13970;DHT22;7057;49.984;8.404;2023-07-29T03:56:47;18.80;99.90
13970;DHT22;7057;49.984;8.404;2023-07-29T03:59:15;18.70;99.90
13970;DHT22;7057;49.984;8.404;2023-07-29T04:01:42;18.70;99.90
13970;DHT22;7057;49.984;8.404;2023-07-29T04:04:09;18.70;99.90
13970;DHT22;7057;49.984;8.404;2023-07-29T04:06:36;18.60;99.90
13970;DHT22;7057;49.984;8.404;2023-07-29T04:09:03;18.60;99.90
13970;DHT22;7057;49.984;8.404;2023-07-29T04:11:31;18.70;99.90
13970;DHT22;7057;49.984;8.404;2023-07-29T04:13:59;18.70;99.90
13970;DHT22;7057;49.984;8.404;2023-07-29T04:16:26;18.70;99.90
13970;DHT22;7057;49.984;8.404;2023-07-29T04:18:54;18.70;99.90
13970;DHT22;7057;49.984;8.404;2023-07-29T04:21:21;18.70;99.90
13970;DHT22;7057;49.984;8.404;2023-07-29T04:23:49;18.70;99.90
13970;DHT22;7057;49.984;8.404;2023-07-29T04:26:16;18.70;99.90
13970;DHT22;7057;49.984;8.404;2023-07-29T04:28:43;18.70;99.90
13970;DHT22;7057;49.984;8.404;2023-07-29T04:31:11;18.70;99.90
13970;DHT22;7057;49.984;8.404;2023-07-29T04:33:38;18.70;99.90
13970;DHT22;7057;49.984;8.404;2023-07-29T04:36:06;18.60;99.90
13970;DHT22;7057;49.984;8.404;2023-07-29T04:38:33;18.60;99.90
13970;DHT22;7057;49.984;8.404;2023-07-29T04:41:00;18.70;99.90
13970;DHT22;7057;49.984;8.404;2023-07-29T04:43:28;18.70;99.90
13970;DHT22;7057;49.984;8.404;2023-07-29T04:45:55;18.70;99.90
13970;DHT22;7057;49.984;8.404;2023-07-29T04:48:23;18.70;99.90
13970;DHT22;7057;49.984;8.404;2023-07-29T04:50:50;18.70;99.90
13970;DHT22;7057;49.984;8.404;2023-07-29T04:53:18;18.70;99.90
13970;DHT22;7057;49.984;8.404;2023-07-29T04:55:45;18.80;99.90
13970;DHT22;7057;49.984;8.404;2023-07-29T04:58:12;18.80;99.90
13970;DHT22;7057;49.984;8.404;2023-07-29T05:00:39;18.90;99.90
13970;DHT22;7057;49.984;8.404;2023-07-29T05:03:06;19.00;99.90
13970;DHT22;7057;49.984;8.404;2023-07-29T05:05:35;19.10;99.90
13970;DHT22;7057;49.984;8.404;2023-07-29T05:08:02;19.10;99.90
13970;DHT22;7057;49.984;8.404;2023-07-29T05:10:29;19.20;99.90
13970;DHT22;7057;49.984;8.404;2023-07-29T05:12:56;19.20;99.90
13970;DHT22;7057;49.984;8.404;2023-07-29T05:15:24;19.30;99.90
13970;DHT22;7057;49.984;8.404;2023-07-29T05:17:51;19.50;99.90
13970;DHT22;7057;49.984;8.404;2023-07-29T05:20:18;19.50;99.90
13970;DHT22;7057;49.984;8.404;2023-07-29T05:22:46;19.50;99.90
13970;DHT22;7057;49.984;8.404;2023-07-29T05:25:14;19.60;99.90
13970;DHT22;7057;49.984;8.404;2023-07-29T05:27:41;19.60;99.90
13970;DHT22;7057;49.984;8.404;2023-07-29T05:30:08;19.70;99.90
13970;DHT22;7057;49.984;8.404;2023-07-29T05:32:35;19.70;99.90
13970;DHT22;7057;49.984;8.404;2023-07-29T05:35:03;19.80;99.90
13970;DHT22;7057;49.984;8.404;2023-07-29T05:37:30;19.80;99.90
13970;DHT22;7057;49.984;8.404;2023-07-29T05:39:58;19.80;99.90
13970;DHT22;7057;49.984;8.404;2023-07-29T05:42:26;19.90;99.90
13970;DHT22;7057;49.984;8.404;2023-07-29T05:44:53;20.10;99.90
13970;DHT22;7057;49.984;8.404;2023-07-29T05:47:20;20.20;99.90
13970;DHT22;7057;49.984;8.404;2023-07-29T05:49:47;20.30;99.90
13970;DHT22;7057;49.984;8.404;2023-07-29T05:52:15;20.50;99.90
13970;DHT22;7057;49.984;8.404;2023-07-29T05:54:42;20.50;99.90
13970;DHT22;7057;49.984;8.404;2023-07-29T05:57:11;20.50;99.90
13970;DHT22;7057;49.984;8.404;2023-07-29T05:59:38;20.50;99.90
13970;DHT22;7057;49.984;8.404;2023-07-29T06:02:06;20.50;99.90
13970;DHT22;7057;49.984;8.404;2023-07-29T06:04:33;20.50;99.90
13970;DHT22;7057;49.984;8.404;2023-07-29T06:07:00;20.50;99.90
13970;DHT22;7057;49.984;8.404;2023-07-29T06:09:27;20.30;99.90
13970;DHT22;7057;49.984;8.404;2023-07-29T06:11:55;20.20;99.90
13970;DHT22;7057;49.984;8.404;2023-07-29T06:14:23;20.10;99.90
13970;DHT22;7057;49.984;8.404;2023-07-29T06:16:50;20.10;99.90
13970;DHT22;7057;49.984;8.404;2023-07-29T06:19:18;20.00;99.90
13970;DHT22;7057;49.984;8.404;2023-07-29T06:21:45;20.00;99.90
13970;DHT22;7057;49.984;8.404;2023-07-29T06:24:12;20.00;99.90
13970;DHT22;7057;49.984;8.404;2023-07-29T06:26:40;20.10;99.90
13970;DHT22;7057;49.984;8.404;2023-07-29T06:29:07;20.10;99.90
13970;DHT22;7057;49.984;8.404;2023-07-29T06:31:35;20.20;99.90
13970;DHT22;7057;49.984;8.404;2023-07-29T06:34:02;20.20;99.90
13970;DHT22;7057;49.984;8.404;2023-07-29T06:36:30;20.20;99.90
13970;DHT22;7057;49.984;8.404;2023-07-29T06:38:57;20.20;99.90
13970;DHT22;7057;49.984;8.404;2023-07-29T06:41:24;20.20;99.90
13970;DHT22;7057;49.984;8.404;2023-07-29T06:43:51;20.20;99.90
13970;DHT22;7057;49.984;8.404;2023-07-29T06:46:18;20.20;99.90
13970;DHT22;7057;49.984;8.404;2023-07-29T06:48:47;20.10;99.90
13970;DHT22;7057;49.984;8.404;2023-07-29T06:51:14;20.10;99.90
13970;DHT22;7057;49.984;8.404;2023-07-29T06:53:41;20.10;99.90
13970;DHT22;7057;49.984;8.404;2023-07-29T06:56:08;19.90;99.90
13970;DHT22;7057;49.984;8.404;2023-07-29T06:58:35;19.90;99.90
13970;DHT22;7057;49.984;8.404;2023-07-29T07:01:03;19.80;99.90
13970;DHT22;7057;49.984;8.404;2023-07-29T07:03:30;19.80;99.90
13970;DHT22;7057;49.984;8.404;2023-07-29T07:05:58;19.80;99.90
13970;DHT22;7057;49.984;8.404;2023-07-29T07:08:25;19.80;99.90
13970;DHT22;7057;49.984;8.404;2023-07-29T07:10:53;20.00;99.90
13970;DHT22;7057;49.984;8.404;2023-07-29T07:13:20;20.00;99.90
13970;DHT22;7057;49.984;8.404;2023-07-29T07:15:47;20.00;99.90
13970;DHT22;7057;49.984;8.404;2023-07-29T07:18:14;20.00;99.90
13970;DHT22;7057;49.984;8.404;2023-07-29T07:20:41;20.10;99.90
13970;DHT22;7057;49.984;8.404;2023-07-29T07:23:10;20.30;99.90
13970;DHT22;7057;49.984;8.404;2023-07-29T07:25:39;20.40;99.90
13970;DHT22;7057;49.984;8.404;2023-07-29T07:28:06;20.50;99.90
13970;DHT22;7057;49.984;8.404;2023-07-29T07:30:33;20.50;99.90
13970;DHT22;7057;49.984;8.404;2023-07-29T07:33:01;20.50;99.90
13970;DHT22;7057;49.984;8.404;2023-07-29T07:35:28;20.70;99.90
13970;DHT22;7057;49.984;8.404;2023-07-29T07:37:55;20.70;99.90
13970;DHT22;7057;49.984;8.404;2023-07-29T07:40:24;20.90;99.90
13970;DHT22;7057;49.984;8.404;2023-07-29T07:42:51;21.00;99.90
13970;DHT22;7057;49.984;8.404;2023-07-29T07:45:18;21.10;99.90
13970;DHT22;7057;49.984;8.404;2023-07-29T07:47:45;21.20;99.90
13970;DHT22;7057;49.984;8.404;2023-07-29T07:50:12;21.20;99.90
13970;DHT22;7057;49.984;8.404;2023-07-29T07:52:40;21.20;99.90
13970;DHT22;7057;49.984;8.404;2023-07-29T07:55:08;21.20;99.90
13970;DHT22;7057;49.984;8.404;2023-07-29T07:57:37;21.10;99.90
13970;DHT22;7057;49.984;8.404;2023-07-29T08:00:05;21.00;99.90
13970;DHT22;7057;49.984;8.404;2023-07-29T08:02:32;20.90;99.90
13970;DHT22;7057;49.984;8.404;2023-07-29T08:05:00;20.90;99.90
13970;DHT22;7057;49.984;8.404;2023-07-29T08:07:27;21.00;99.90
13970;DHT22;7057;49.984;8.404;2023-07-29T08:09:54;21.20;99.90
13970;DHT22;7057;49.984;8.404;2023-07-29T08:12:21;21.30;99.90
13970;DHT22;7057;49.984;8.404;2023-07-29T08:14:50;21.60;99.90
13970;DHT22;7057;49.984;8.404;2023-07-29T08:17:17;21.90;99.90
13970;DHT22;7057;49.984;8.404;2023-07-29T08:19:44;22.20;99.90
13970;DHT22;7057;49.984;8.404;2023-07-29T08:22:11;22.50;99.90
13970;DHT22;7057;49.984;8.404;2023-07-29T08:24:38;22.70;99.90
13970;DHT22;7057;49.984;8.404;2023-07-29T08:27:06;23.00;99.90
13970;DHT22;7057;49.984;8.404;2023-07-29T08:29:33;22.90;99.90
13970;DHT22;7057;49.984;8.404;2023-07-29T08:32:02;22.80;99.90
13970;DHT22;7057;49.984;8.404;2023-07-29T08:34:29;22.60;99.90
13970;DHT22;7057;49.984;8.404;2023-07-29T08:36:57;22.60;99.90
13970;DHT22;7057;49.984;8.404;2023-07-29T08:39:24;22.50;99.90
13970;DHT22;7057;49.984;8.404;2023-07-29T08:41:56;22.50;99.90
13970;DHT22;7057;49.984;8.404;2023-07-29T08:44:26;22.60;99.90
13970;DHT22;7057;49.984;8.404;2023-07-29T08:46:56;22.70;99.90
13970;DHT22;7057;49.984;8.404;2023-07-29T08:49:26;22.90;99.90
13970;DHT22;7057;49.984;8.404;2023-07-29T08:51:54;23.20;99.90
13970;DHT22;7057;49.984;8.404;2023-07-29T08:54:24;23.40;99.90
13970;DHT22;7057;49.984;8.404;2023-07-29T08:56:52;23.50;99.90
13970;DHT22;7057;49.984;8.404;2023-07-29T08:59:19;23.50;99.90
13970;DHT22;7057;49.984;8.404;2023-07-29T09:01:47;23.60;99.90
13970;DHT22;7057;49.984;8.404;2023-07-29T09:04:14;23.70;99.90
13970;DHT22;7057;49.984;8.404;2023-07-29T09:06:44;23.80;99.90
13970;DHT22;7057;49.984;8.404;2023-07-29T09:09:13;23.90;99.90
13970;DHT22;7057;49.984;8.404;2023-07-29T09:11:40;24.10;99.90
13970;DHT22;7057;49.984;8.404;2023-07-29T09:14:07;24.40;99.90
13970;DHT22;7057;49.984;8.404;2023-07-29T09:16:34;24.70;99.90
13970;DHT22;7057;49.984;8.404;2023-07-29T09:19:02;25.00;99.90
13970;DHT22;7057;49.984;8.404;2023-07-29T09:21:30;25.10;99.90
13970;DHT22;7057;49.984;8.404;2023-07-29T09:24:02;25.00;99.90
13970;DHT22;7057;49.984;8.404;2023-07-29T09:26:30;25.00;99.90
13970;DHT22;7057;49.984;8.404;2023-07-29T09:28:58;24.90;99.90
13970;DHT22;7057;49.984;8.404;2023-07-29T09:31:27;25.00;99.90
13970;DHT22;7057;49.984;8.404;2023-07-29T09:33:56;25.10;99.90
13970;DHT22;7057;49.984;8.404;2023-07-29T09:36:25;25.10;99.90
13970;DHT22;7057;49.984;8.404;2023-07-29T09:38:53;25.10;99.90
13970;DHT22;7057;49.984;8.404;2023-07-29T09:41:24;25.10;99.90
13970;DHT22;7057;49.984;8.404;2023-07-29T09:43:55;24.90;99.90
13970;DHT22;7057;49.984;8.404;2023-07-29T09:46:24;25.00;99.90
13970;DHT22;7057;49.984;8.404;2023-07-29T09:48:53;24.90;99.90
13970;DHT22;7057;49.984;8.404;2023-07-29T09:51:21;25.00;99.90
13970;DHT22;7057;49.984;8.404;2023-07-29T09:53:50;25.00;99.90
13970;DHT22;7057;49.984;8.404;2023-07-29T09:56:17;25.10;99.90
13970;DHT22;7057;49.984;8.404;2023-07-29T09:58:48;25.10;99.90
13970;DHT22;7057;49.984;8.404;2023-07-29T10:01:15;25.10;99.90
13970;DHT22;7057;49.984;8.404;2023-07-29T10:03:42;25.20;99.90
13970;DHT22;7057;49.984;8.404;2023-07-29T10:06:11;25.10;99.90
13970;DHT22;7057;49.984;8.404;2023-07-29T10:08:39;25.00;99.90
13970;DHT22;7057;49.984;8.404;2023-07-29T10:11:09;24.90;99.90
13970;DHT22;7057;49.984;8.404;2023-07-29T10:13:37;25.10;99.90
13970;DHT22;7057;49.984;8.404;2023-07-29T10:16:06;25.30;99.90
13970;DHT22;7057;49.984;8.404;2023-07-29T10:18:33;25.50;99.90
13970;DHT22;7057;49.984;8.404;2023-07-29T10:21:02;25.50;99.90
13970;DHT22;7057;49.984;8.404;2023-07-29T10:23:34;25.60;99.90
13970;DHT22;7057;49.984;8.404;2023-07-29T10:26:03;25.80;99.90
13970;DHT22;7057;49.984;8.404;2023-07-29T10:28:32;26.10;99.90
13970;DHT22;7057;49.984;8.404;2023-07-29T10:31:00;26.40;99.90
13970;DHT22;7057;49.984;8.404;2023-07-29T10:33:31;26.60;99.90
13970;DHT22;7057;49.984;8.404;2023-07-29T10:36:00;26.70;99.90
13970;DHT22;7057;49.984;8.404;2023-07-29T10:38:28;26.90;99.90
13970;DHT22;7057;49.984;8.404;2023-07-29T10:40:56;27.00;99.90
13970;DHT22;7057;49.984;8.404;2023-07-29T10:43:27;26.90;99.90
13970;DHT22;7057;49.984;8.404;2023-07-29T10:45:55;26.70;99.90
13970;DHT22;7057;49.984;8.404;2023-07-29T10:48:43;26.40;99.90
13970;DHT22;7057;49.984;8.404;2023-07-29T10:51:27;26.30;99.90
13970;DHT22;7057;49.984;8.404;2023-07-29T10:53:58;26.30;99.90
13970;DHT22;7057;49.984;8.404;2023-07-29T10:56:30;26.30;99.90
13970;DHT22;7057;49.984;8.404;2023-07-29T10:58:58;26.30;99.90
13970;DHT22;7057;49.984;8.404;2023-07-29T11:01:27;26.20;99.90
13970;DHT22;7057;49.984;8.404;2023-07-29T11:04:22;26.20;99.90
13970;DHT22;7057;49.984;8.404;2023-07-29T11:07:19;26.20;99.90
13970;DHT22;7057;49.984;8.404;2023-07-29T11:10:11;26.10;99.90
13970;DHT22;7057;49.984;8.404;2023-07-29T11:12:43;25.90;99.90
13970;DHT22;7057;49.984;8.404;2023-07-29T11:15:19;25.80;99.90
13970;DHT22;7057;49.984;8.404;2023-07-29T11:17:48;25.60;99.90
13970;DHT22;7057;49.984;8.404;2023-07-29T11:20:18;25.40;99.90
13970;DHT22;7057;49.984;8.404;2023-07-29T11:22:46;25.40;99.90
13970;DHT22;7057;49.984;8.404;2023-07-29T11:25:15;25.40;99.90
13970;DHT22;7057;49.984;8.404;2023-07-29T11:27:43;25.40;99.90
13970;DHT22;7057;49.984;8.404;2023-07-29T11:30:12;25.40;99.90
13970;DHT22;7057;49.984;8.404;2023-07-29T11:32:41;25.50;99.90
13970;DHT22;7057;49.984;8.404;2023-07-29T11:35:09;25.50;99.90
13970;DHT22;7057;49.984;8.404;2023-07-29T11:37:39;25.50;99.90
13970;DHT22;7057;49.984;8.404;2023-07-29T11:40:07;25.70;99.90
13970;DHT22;7057;49.984;8.404;2023-07-29T11:42:37;25.80;99.90
13970;DHT22;7057;49.984;8.404;2023-07-29T11:45:05;25.80;99.90
13970;DHT22;7057;49.984;8.404;2023-07-29T11:47:33;26.00;99.90
13970;DHT22;7057;49.984;8.404;2023-07-29T11:50:03;26.10;99.90
13970;DHT22;7057;49.984;8.404;2023-07-29T11:52:32;26.20;99.90
13970;DHT22;7057;49.984;8.404;2023-07-29T11:55:02;26.30;99.90
13970;DHT22;7057;49.984;8.404;2023-07-29T11:57:29;26.40;99.90
13970;DHT22;7057;49.984;8.404;2023-07-29T11:59:57;26.50;99.90
13970;DHT22;7057;49.984;8.404;2023-07-29T12:02:25;26.50;99.90
13970;DHT22;7057;49.984;8.404;2023-07-29T12:04:53;26.70;99.90
13970;DHT22;7057;49.984;8.404;2023-07-29T12:07:20;26.90;99.90
13970;DHT22;7057;49.984;8.404;2023-07-29T12:09:48;27.00;99.90
13970;DHT22;7057;49.984;8.404;2023-07-29T12:12:17;26.80;99.90
13970;DHT22;7057;49.984;8.404;2023-07-29T12:14:45;26.90;99.90
13970;DHT22;7057;49.984;8.404;2023-07-29T12:17:13;26.80;99.90
13970;DHT22;7057;49.984;8.404;2023-07-29T12:19:41;26.70;99.90
13970;DHT22;7057;49.984;8.404;2023-07-29T12:22:10;26.70;99.90
13970;DHT22;7057;49.984;8.404;2023-07-29T12:24:38;26.90;99.90
13970;DHT22;7057;49.984;8.404;2023-07-29T12:27:10;27.10;99.90
13970;DHT22;7057;49.984;8.404;2023-07-29T12:29:41;27.30;99.90
13970;DHT22;7057;49.984;8.404;2023-07-29T12:32:09;27.40;99.90
13970;DHT22;7057;49.984;8.404;2023-07-29T12:34:38;27.40;99.90
13970;DHT22;7057;49.984;8.404;2023-07-29T12:37:06;27.40;99.90
13970;DHT22;7057;49.984;8.404;2023-07-29T12:39:35;27.40;99.90
13970;DHT22;7057;49.984;8.404;2023-07-29T12:42:06;27.30;99.90
13970;DHT22;7057;49.984;8.404;2023-07-29T12:44:34;27.30;99.90
13970;DHT22;7057;49.984;8.404;2023-07-29T12:47:04;27.40;99.90
13970;DHT22;7057;49.984;8.404;2023-07-29T12:49:32;27.60;99.90
13970;DHT22;7057;49.984;8.404;2023-07-29T12:51:59;27.80;99.90
13970;DHT22;7057;49.984;8.404;2023-07-29T12:54:27;28.00;99.90
13970;DHT22;7057;49.984;8.404;2023-07-29T12:56:54;28.20;99.90
13970;DHT22;7057;49.984;8.404;2023-07-29T12:59:21;28.30;99.90
13970;DHT22;7057;49.984;8.404;2023-07-29T13:01:48;28.40;99.90
13970;DHT22;7057;49.984;8.404;2023-07-29T13:04:17;28.40;99.90
13970;DHT22;7057;49.984;8.404;2023-07-29T13:06:44;28.30;99.90
13970;DHT22;7057;49.984;8.404;2023-07-29T13:09:11;28.30;99.90
13970;DHT22;7057;49.984;8.404;2023-07-29T13:11:38;28.40;99.90
13970;DHT22;7057;49.984;8.404;2023-07-29T13:14:05;28.40;99.90
13970;DHT22;7057;49.984;8.404;2023-07-29T13:16:32;28.30;99.90
13970;DHT22;7057;49.984;8.404;2023-07-29T13:19:00;28.50;99.90
13970;DHT22;7057;49.984;8.404;2023-07-29T13:21:28;28.40;99.90
13970;DHT22;7057;49.984;8.404;2023-07-29T13:23:55;28.50;99.90
13970;DHT22;7057;49.984;8.404;2023-07-29T13:26:23;28.60;99.90
13970;DHT22;7057;49.984;8.404;2023-07-29T13:28:50;28.60;99.90
13970;DHT22;7057;49.984;8.404;2023-07-29T13:31:17;28.70;99.90
13970;DHT22;7057;49.984;8.404;2023-07-29T13:33:44;28.80;99.90
13970;DHT22;7057;49.984;8.404;2023-07-29T13:36:11;29.00;99.90
13970;DHT22;7057;49.984;8.404;2023-07-29T13:38:40;28.80;99.90
13970;DHT22;7057;49.984;8.404;2023-07-29T13:41:08;28.40;99.90
13970;DHT22;7057;49.984;8.404;2023-07-29T13:43:35;28.20;99.90
13970;DHT22;7057;49.984;8.404;2023-07-29T13:46:02;28.10;99.90
13970;DHT22;7057;49.984;8.404;2023-07-29T13:48:29;27.80;99.90
13970;DHT22;7057;49.984;8.404;2023-07-29T13:50:59;27.70;99.90
13970;DHT22;7057;49.984;8.404;2023-07-29T13:53:26;27.70;99.90
13970;DHT22;7057;49.984;8.404;2023-07-29T13:55:54;27.70;99.90
13970;DHT22;7057;49.984;8.404;2023-07-29T13:58:21;27.60;99.90
13970;DHT22;7057;49.984;8.404;2023-07-29T14:00:49;27.50;99.90
13970;DHT22;7057;49.984;8.404;2023-07-29T14:03:16;27.40;99.90
13970;DHT22;7057;49.984;8.404;2023-07-29T14:05:43;27.50;99.90
13970;DHT22;7057;49.984;8.404;2023-07-29T14:08:10;27.50;99.90
13970;DHT22;7057;49.984;8.404;2023-07-29T14:10:37;27.40;99.90
13970;DHT22;7057;49.984;8.404;2023-07-29T14:13:06;27.30;99.90
13970;DHT22;7057;49.984;8.404;2023-07-29T14:15:33;27.20;99.90
13970;DHT22;7057;49.984;8.404;2023-07-29T14:18:00;27.30;99.90
13970;DHT22;7057;49.984;8.404;2023-07-29T14:20:28;27.30;99.90
13970;DHT22;7057;49.984;8.404;2023-07-29T14:22:55;27.30;99.90
13970;DHT22;7057;49.984;8.404;2023-07-29T14:25:22;27.40;99.90
13970;DHT22;7057;49.984;8.404;2023-07-29T14:27:49;27.50;99.90
13970;DHT22;7057;49.984;8.404;2023-07-29T14:30:18;27.50;99.90
13970;DHT22;7057;49.984;8.404;2023-07-29T14:32:45;27.40;99.90
13970;DHT22;7057;49.984;8.404;2023-07-29T14:35:12;27.40;99.90
13970;DHT22;7057;49.984;8.404;2023-07-29T14:37:39;27.40;99.90
13970;DHT22;7057;49.984;8.404;2023-07-29T14:40:07;27.30;99.90
13970;DHT22;7057;49.984;8.404;2023-07-29T14:42:34;27.30;99.90
13970;DHT22;7057;49.984;8.404;2023-07-29T14:45:01;27.30;99.90
13970;DHT22;7057;49.984;8.404;2023-07-29T14:47:30;27.30;99.90
13970;DHT22;7057;49.984;8.404;2023-07-29T14:50:00;27.30;99.90
13970;DHT22;7057;49.984;8.404;2023-07-29T14:52:27;27.30;99.90
13970;DHT22;7057;49.984;8.404;2023-07-29T14:54:55;27.10;99.90
13970;DHT22;7057;49.984;8.404;2023-07-29T14:57:22;27.00;99.90
13970;DHT22;7057;49.984;8.404;2023-07-29T14:59:49;26.90;99.90
13970;DHT22;7057;49.984;8.404;2023-07-29T15:02:16;26.90;99.90
13970;DHT22;7057;49.984;8.404;2023-07-29T15:04:45;27.10;99.90
13970;DHT22;7057;49.984;8.404;2023-07-29T15:07:12;27.30;99.90
13970;DHT22;7057;49.984;8.404;2023-07-29T15:09:40;27.60;99.90
13970;DHT22;7057;49.984;8.404;2023-07-29T15:12:08;27.60;99.90
13970;DHT22;7057;49.984;8.404;2023-07-29T15:14:35;27.60;99.90
13970;DHT22;7057;49.984;8.404;2023-07-29T15:17:02;27.70;99.90
13970;DHT22;7057;49.984;8.404;2023-07-29T15:19:30;27.80;99.90
13970;DHT22;7057;49.984;8.404;2023-07-29T15:21:58;28.00;99.90
13970;DHT22;7057;49.984;8.404;2023-07-29T15:24:25;28.10;99.90
13970;DHT22;7057;49.984;8.404;2023-07-29T15:26:52;28.10;99.90
13970;DHT22;7057;49.984;8.404;2023-07-29T15:29:19;27.90;99.90
13970;DHT22;7057;49.984;8.404;2023-07-29T15:31:47;27.70;99.90
13970;DHT22;7057;49.984;8.404;2023-07-29T15:34:14;27.50;99.90
13970;DHT22;7057;49.984;8.404;2023-07-29T15:36:41;27.40;99.90
13970;DHT22;7057;49.984;8.404;2023-07-29T15:39:09;27.50;99.90
13970;DHT22;7057;49.984;8.404;2023-07-29T15:41:36;27.70;99.90
13970;DHT22;7057;49.984;8.404;2023-07-29T15:44:04;28.10;99.90
13970;DHT22;7057;49.984;8.404;2023-07-29T15:46:31;28.10;99.90
13970;DHT22;7057;49.984;8.404;2023-07-29T15:48:59;28.00;99.90
13970;DHT22;7057;49.984;8.404;2023-07-29T15:51:27;27.80;99.90